Time,TemperatureF,DewpointF,PressureIn,WindDirection,WindDirectionDegrees,WindSpeedMPH,WindSpeedGustMPH,Humidity,HourlyPrecipIn,Conditions,Clouds,dailyrainin,SoftwareType,DateUTC
2013-07-08 06:50:00,75.3,71.5,30.00,South,191,6.0,6.0,88,0.00,,,0.00,Wunderground v.1.15,2013-07-08 11:50:00,
2013-07-08 07:00:00,75.4,71.6,30.00,SSW,210,6.0,6.0,88,0.00,,,0.00,Wunderground v.1.15,2013-07-08 12:00:00,
2013-07-08 07:05:00,75.4,71.6,30.01,SSW,204,6.0,7.0,88,0.00,,,0.00,Wunderground v.1.15,2013-07-08 12:05:00,
2013-07-08 07:10:00,75.5,71.7,30.00,SSW,201,6.0,6.0,88,0.00,,,0.00,Wunderground v.1.15,2013-07-08 12:10:00,
2013-07-08 07:15:00,75.6,71.5,30.00,SSW,195,6.0,6.0,87,0.00,,,0.00,Wunderground v.1.15,2013-07-08 12:15:00,
2013-07-08 07:25:00,75.8,71.7,30.01,SW,215,5.0,5.0,87,0.00,,,0.00,Wunderground v.1.15,2013-07-08 12:25:00,
2013-07-08 07:30:00,75.8,71.7,30.01,SW,222,5.0,5.0,87,0.00,,,0.00,Wunderground v.1.15,2013-07-08 12:30:00,
2013-07-08 07:35:00,75.9,71.8,30.02,SSW,198,5.0,5.0,87,0.00,,,0.00,Wunderground v.1.15,2013-07-08 12:35:00,
2013-07-08 07:40:00,76.0,71.8,30.02,SW,216,4.0,5.0,87,0.00,,,0.00,Wunderground v.1.15,2013-07-08 12:40:00,
2013-07-08 07:45:00,76.0,71.8,30.03,SW,224,3.0,3.0,87,0.00,,,0.00,Wunderground v.1.15,2013-07-08 12:45:00,
2013-07-08 07:50:00,76.0,72.2,30.03,SW,229,3.0,3.0,88,0.00,,,0.00,Wunderground v.1.15,2013-07-08 12:50:00,
2013-07-08 07:55:00,75.9,72.1,30.03,WSW,238,3.0,4.0,88,0.00,,,0.00,Wunderground v.1.15,2013-07-08 12:55:00,
2013-07-08 08:00:00,75.9,72.1,30.03,SW,215,3.0,4.0,88,0.00,,,0.00,Wunderground v.1.15,2013-07-08 13:00:00,
2013-07-08 08:10:00,76.0,72.2,30.03,WSW,242,3.0,4.0,88,0.00,,,0.00,Wunderground v.1.15,2013-07-08 13:10:00,
2013-07-08 08:15:00,76.0,72.2,30.03,WSW,250,3.0,4.0,88,0.00,,,0.00,Wunderground v.1.15,2013-07-08 13:15:00,
2013-07-08 08:20:00,76.0,72.2,30.03,SW,221,3.0,3.0,88,0.00,,,0.00,Wunderground v.1.15,2013-07-08 13:20:00,
2013-07-08 08:25:00,75.9,72.1,30.04,WSW,242,3.0,4.0,88,0.00,,,0.00,Wunderground v.1.15,2013-07-08 13:25:00,
2013-07-08 09:05:00,74.7,72.5,30.03,SW,218,3.0,3.0,93,0.00,,,0.00,Wunderground v.1.15,2013-07-08 14:05:00,
2013-07-08 09:10:00,74.7,72.5,30.04,SSW,209,3.0,3.0,93,0.00,,,0.00,Wunderground v.1.15,2013-07-08 14:10:00,
2013-07-08 09:15:00,74.8,72.6,30.04,SSW,200,3.0,3.0,93,0.00,,,0.00,Wunderground v.1.15,2013-07-08 14:15:00,
2013-07-08 09:20:00,74.6,72.4,30.03,SSW,212,3.0,4.0,93,0.00,,,0.00,Wunderground v.1.15,2013-07-08 14:20:00,
2013-07-08 09:25:00,74.5,72.7,30.03,SSW,202,4.0,4.0,94,0.00,,,0.00,Wunderground v.1.15,2013-07-08 14:25:00,
2013-07-08 09:30:00,74.4,72.6,30.04,SW,227,5.0,5.0,94,0.00,,,0.00,Wunderground v.1.15,2013-07-08 14:30:00,
2013-07-08 09:35:00,74.2,72.4,30.04,SW,229,5.0,5.0,94,0.00,,,0.00,Wunderground v.1.15,2013-07-08 14:35:00,
2013-07-08 09:40:00,74.1,72.3,30.05,WSW,238,4.0,6.0,94,0.00,,,0.00,Wunderground v.1.15,2013-07-08 14:40:00,
2013-07-08 09:45:00,73.9,72.1,30.04,SSW,213,4.0,10.0,94,0.00,,,0.00,Wunderground v.1.15,2013-07-08 14:45:00,
2013-07-08 09:50:00,73.6,71.8,30.04,SSW,192,5.0,7.0,94,0.00,,,0.00,Wunderground v.1.15,2013-07-08 14:50:00,
2013-07-08 09:55:00,73.6,72.1,30.04,South,190,5.0,7.0,95,0.00,,,0.00,Wunderground v.1.15,2013-07-08 14:55:00,
2013-07-08 10:00:00,73.6,72.1,30.03,SW,235,5.0,5.0,95,0.00,,,0.00,Wunderground v.1.15,2013-07-08 15:00:00,
2013-07-08 10:05:00,73.5,71.7,30.04,SW,232,5.0,5.0,94,0.00,,,0.00,Wunderground v.1.15,2013-07-08 15:05:00,
2013-07-08 10:10:00,73.6,71.8,30.04,SW,219,4.0,6.0,94,0.00,,,0.00,Wunderground v.1.15,2013-07-08 15:10:00,
2013-07-08 10:15:00,73.7,71.9,30.03,SSW,192,4.0,6.0,94,0.00,,,0.00,Wunderground v.1.15,2013-07-08 15:15:00,
2013-07-08 10:20:00,73.8,72.0,30.03,South,186,4.0,5.0,94,0.00,,,0.00,Wunderground v.1.15,2013-07-08 15:20:00,
2013-07-08 10:25:00,73.9,72.1,30.03,SW,219,4.0,5.0,94,0.00,,,0.00,Wunderground v.1.15,2013-07-08 15:25:00,
2013-07-08 10:30:00,74.0,72.2,30.03,SSW,200,4.0,4.0,94,0.00,,,0.00,Wunderground v.1.15,2013-07-08 15:30:00,
2013-07-08 10:35:00,74.2,72.4,30.03,SSW,207,4.0,5.0,94,0.00,,,0.00,Wunderground v.1.15,2013-07-08 15:35:00,
2013-07-08 10:40:00,74.3,72.5,30.03,South,186,5.0,7.0,94,0.00,,,0.00,Wunderground v.1.15,2013-07-08 15:40:00,
2013-07-08 10:45:00,74.4,72.2,30.03,South,172,6.0,9.0,93,0.00,,,0.00,Wunderground v.1.15,2013-07-08 15:45:00,
2013-07-08 10:50:00,74.6,72.4,30.03,SSW,198,6.0,6.0,93,0.00,,,0.00,Wunderground v.1.15,2013-07-08 15:50:00,
2013-07-08 10:55:00,74.9,72.4,30.03,SSE,164,6.0,7.0,92,0.00,,,0.00,Wunderground v.1.15,2013-07-08 15:55:00,
2013-07-08 11:00:00,75.1,72.6,30.03,South,184,5.0,5.0,92,0.00,,,0.00,Wunderground v.1.15,2013-07-08 16:00:00,
2013-07-08 11:10:00,75.5,73.0,30.03,South,175,5.0,5.0,92,0.00,,,0.00,Wunderground v.1.15,2013-07-08 16:10:00,
2013-07-08 11:15:00,75.8,73.3,30.03,SSE,167,5.0,5.0,92,0.00,,,0.00,Wunderground v.1.15,2013-07-08 16:15:00,
2013-07-08 11:20:00,76.3,73.8,30.02,South,172,5.0,5.0,92,0.00,,,0.00,Wunderground v.1.15,2013-07-08 16:20:00,
2013-07-08 11:25:00,76.8,74.0,30.01,SSE,165,6.0,6.0,91,0.00,,,0.00,Wunderground v.1.15,2013-07-08 16:25:00,
2013-07-08 11:30:00,77.1,73.9,30.02,South,178,5.0,5.0,90,0.00,,,0.00,Wunderground v.1.15,2013-07-08 16:30:00,
2013-07-08 11:35:00,77.4,74.2,30.02,South,185,5.0,5.0,90,0.00,,,0.00,Wunderground v.1.15,2013-07-08 16:35:00,
2013-07-08 11:40:00,78.0,74.8,30.01,SSE,157,6.0,6.0,90,0.00,,,0.00,Wunderground v.1.15,2013-07-08 16:40:00,
2013-07-08 11:45:00,78.0,74.2,30.01,SSE,158,7.0,7.0,88,0.00,,,0.00,Wunderground v.1.15,2013-07-08 16:45:00,
2013-07-08 11:50:00,78.2,74.7,30.01,SSE,164,7.0,9.0,89,0.00,,,0.00,Wunderground v.1.15,2013-07-08 16:50:00,
2013-07-08 11:55:00,78.4,74.5,30.01,South,169,7.0,9.0,88,0.00,,,0.00,Wunderground v.1.15,2013-07-08 16:55:00,
2013-07-08 12:05:00,79.2,74.6,30.01,South,191,8.0,10.0,86,0.00,,,0.00,Wunderground v.1.15,2013-07-08 17:05:00,
2013-07-08 12:10:00,79.7,74.8,30.01,South,180,7.0,7.0,85,0.00,,,0.00,Wunderground v.1.15,2013-07-08 17:10:00,
2013-07-08 12:15:00,80.1,74.8,30.01,SW,234,7.0,7.0,84,0.00,,,0.00,Wunderground v.1.15,2013-07-08 17:15:00,
2013-07-08 12:20:00,80.4,74.4,30.01,South,188,7.0,8.0,82,0.00,,,0.00,Wunderground v.1.15,2013-07-08 17:20:00,
2013-07-08 12:25:00,80.6,74.6,30.01,SW,220,7.0,8.0,82,0.00,,,0.00,Wunderground v.1.15,2013-07-08 17:25:00,
2013-07-08 12:30:00,80.7,74.3,30.01,SW,226,7.0,9.0,81,0.00,,,0.00,Wunderground v.1.15,2013-07-08 17:30:00,
2013-07-08 12:35:00,80.7,74.0,30.01,SSW,201,8.0,9.0,80,0.00,,,0.00,Wunderground v.1.15,2013-07-08 17:35:00,
2013-07-08 12:40:00,80.6,73.9,30.01,SSW,192,7.0,7.0,80,0.00,,,0.00,Wunderground v.1.15,2013-07-08 17:40:00,
2013-07-08 12:55:00,80.5,73.8,30.01,SSW,211,6.0,7.0,80,0.00,,,0.00,Wunderground v.1.15,2013-07-08 17:55:00,
2013-07-08 13:00:00,80.7,74.0,30.01,SSW,200,5.0,7.0,80,0.00,,,0.00,Wunderground v.1.15,2013-07-08 18:00:00,
2013-07-08 13:10:00,81.1,74.3,30.01,South,191,5.0,6.0,80,0.00,,,0.00,Wunderground v.1.15,2013-07-08 18:10:00,
2013-07-08 13:20:00,81.2,74.4,30.01,SSW,209,5.0,5.0,80,0.00,,,0.00,Wunderground v.1.15,2013-07-08 18:20:00,
2013-07-08 13:25:00,81.4,74.6,30.00,South,176,5.0,6.0,80,0.00,,,0.00,Wunderground v.1.15,2013-07-08 18:25:00,
2013-07-08 13:30:00,81.4,74.3,30.00,South,175,5.0,5.0,79,0.00,,,0.00,Wunderground v.1.15,2013-07-08 18:30:00,
2013-07-08 13:35:00,81.7,74.9,30.00,SW,215,5.0,6.0,80,0.00,,,0.00,Wunderground v.1.15,2013-07-08 18:35:00,
2013-07-08 13:45:00,83.0,75.8,30.00,South,186,4.0,6.0,79,0.00,,,0.00,Wunderground v.1.15,2013-07-08 18:45:00,
2013-07-08 13:50:00,83.4,75.8,29.99,SSW,197,6.0,6.0,78,0.00,,,0.00,Wunderground v.1.15,2013-07-08 18:50:00,
2013-07-08 13:55:00,83.7,76.1,29.99,South,180,6.0,6.0,78,0.00,,,0.00,Wunderground v.1.15,2013-07-08 18:55:00,
2013-07-08 14:00:00,84.0,76.0,29.98,South,182,5.0,9.0,77,0.00,,,0.00,Wunderground v.1.15,2013-07-08 19:00:00,
2013-07-08 14:10:00,83.7,74.5,29.98,South,173,7.0,8.0,74,0.00,,,0.00,Wunderground v.1.15,2013-07-08 19:10:00,
2013-07-08 14:15:00,83.5,75.1,29.98,South,171,8.0,8.0,76,0.00,,,0.00,Wunderground v.1.15,2013-07-08 19:15:00,
2013-07-08 14:20:00,83.7,74.9,29.98,SSW,207,7.0,7.0,75,0.00,,,0.00,Wunderground v.1.15,2013-07-08 19:20:00,
2013-07-08 14:25:00,83.6,75.2,29.98,SSE,167,6.0,7.0,76,0.00,,,0.00,Wunderground v.1.15,2013-07-08 19:25:00,
2013-07-08 14:30:00,83.8,75.0,29.98,SSE,157,7.0,11.0,75,0.00,,,0.00,Wunderground v.1.15,2013-07-08 19:30:00,
2013-07-08 14:35:00,84.0,74.8,29.97,SSW,194,8.0,11.0,74,0.00,,,0.00,Wunderground v.1.15,2013-07-08 19:35:00,
2013-07-08 14:40:00,84.1,75.3,29.97,South,184,7.0,8.0,75,0.00,,,0.00,Wunderground v.1.15,2013-07-08 19:40:00,
2013-07-08 14:50:00,84.9,75.3,29.97,SSW,208,8.0,9.0,73,0.00,,,0.00,Wunderground v.1.15,2013-07-08 19:50:00,
2013-07-08 14:55:00,85.4,74.9,29.97,SW,217,8.0,9.0,71,0.00,,,0.00,Wunderground v.1.15,2013-07-08 19:55:00,
2013-07-08 15:00:00,85.9,75.8,29.97,SSW,192,8.0,8.0,72,0.00,,,0.00,Wunderground v.1.15,2013-07-08 20:00:00,
2013-07-08 15:05:00,86.1,75.2,29.97,SSW,194,7.0,8.0,70,0.00,,,0.00,Wunderground v.1.15,2013-07-08 20:05:00,
2013-07-08 15:10:00,86.1,74.3,29.97,WSW,249,8.0,12.0,68,0.00,,,0.00,Wunderground v.1.15,2013-07-08 20:10:00,
2013-07-08 15:15:00,85.7,75.6,29.96,SSW,198,8.0,12.0,72,0.00,,,0.00,Wunderground v.1.15,2013-07-08 20:15:00,
2013-07-08 15:30:00,86.2,76.5,29.96,SSW,202,9.0,9.0,73,0.00,,,0.00,Wunderground v.1.15,2013-07-08 20:30:00,
2013-07-08 15:35:00,86.5,74.7,29.96,SW,232,9.0,15.0,68,0.00,,,0.00,Wunderground v.1.15,2013-07-08 20:35:00,
2013-07-08 15:45:00,86.7,74.9,29.96,SW,215,9.0,11.0,68,0.00,,,0.00,Wunderground v.1.15,2013-07-08 20:45:00,
2013-07-08 15:50:00,86.7,75.7,29.96,SSW,200,8.0,10.0,70,0.00,,,0.00,Wunderground v.1.15,2013-07-08 20:50:00,
2013-07-08 16:00:00,86.9,75.5,29.96,SSW,209,8.0,9.0,69,0.00,,,0.00,Wunderground v.1.15,2013-07-08 21:00:00,
2013-07-08 16:10:00,87.0,74.7,29.96,SW,224,9.0,9.0,67,0.00,,,0.00,Wunderground v.1.15,2013-07-08 21:10:00,
2013-07-08 16:15:00,87.0,75.2,29.96,SSW,209,9.0,9.0,68,0.00,,,0.00,Wunderground v.1.15,2013-07-08 21:15:00,
2013-07-08 16:20:00,86.7,74.9,29.96,SW,215,9.0,9.0,68,0.00,,,0.00,Wunderground v.1.15,2013-07-08 21:20:00,
2013-07-08 16:25:00,86.9,75.1,29.96,SSW,199,8.0,11.0,68,0.00,,,0.00,Wunderground v.1.15,2013-07-08 21:25:00,
2013-07-08 16:30:00,87.1,74.8,29.96,SSW,200,8.0,8.0,67,0.00,,,0.00,Wunderground v.1.15,2013-07-08 21:30:00,
2013-07-08 16:35:00,86.9,73.7,29.95,SSW,192,8.0,8.0,65,0.00,,,0.00,Wunderground v.1.15,2013-07-08 21:35:00,
2013-07-08 16:40:00,86.9,74.6,29.96,South,182,8.0,8.0,67,0.00,,,0.00,Wunderground v.1.15,2013-07-08 21:40:00,
2013-07-08 16:45:00,87.1,74.8,29.96,SW,233,8.0,12.0,67,0.00,,,0.00,Wunderground v.1.15,2013-07-08 21:45:00,
2013-07-08 16:55:00,87.2,74.5,29.96,WSW,244,7.0,12.0,66,0.00,,,0.00,Wunderground v.1.15,2013-07-08 21:55:00,
2013-07-08 17:00:00,87.2,74.0,29.96,SW,229,8.0,8.0,65,0.00,,,0.00,Wunderground v.1.15,2013-07-08 22:00:00,
2013-07-08 17:05:00,87.0,72.4,29.96,SW,228,8.0,9.0,62,0.00,,,0.00,Wunderground v.1.15,2013-07-08 22:05:00,
2013-07-08 17:10:00,86.9,73.3,29.96,WSW,248,8.0,8.0,64,0.00,,,0.00,Wunderground v.1.15,2013-07-08 22:10:00,
2013-07-08 17:15:00,86.8,73.2,29.96,SW,214,7.0,8.0,64,0.00,,,0.00,Wunderground v.1.15,2013-07-08 22:15:00,
2013-07-08 17:20:00,86.8,73.6,29.96,SW,232,6.0,9.0,65,0.00,,,0.00,Wunderground v.1.15,2013-07-08 22:20:00,
2013-07-08 17:25:00,86.6,73.9,29.96,SW,224,7.0,9.0,66,0.00,,,0.00,Wunderground v.1.15,2013-07-08 22:25:00,
2013-07-08 17:30:00,86.5,73.3,29.96,SW,234,7.0,7.0,65,0.00,,,0.00,Wunderground v.1.15,2013-07-08 22:30:00,
2013-07-08 17:40:00,86.3,74.0,29.95,SW,227,6.0,6.0,67,0.00,,,0.00,Wunderground v.1.15,2013-07-08 22:40:00,
2013-07-08 17:50:00,86.0,73.8,29.95,SSW,211,7.0,7.0,67,0.00,,,0.00,Wunderground v.1.15,2013-07-08 22:50:00,
2013-07-08 17:55:00,85.6,73.4,29.95,WSW,242,7.0,7.0,67,0.00,,,0.00,Wunderground v.1.15,2013-07-08 22:55:00,
2013-07-08 18:00:00,85.1,72.0,29.95,SW,215,7.0,10.0,65,0.00,,,0.00,Wunderground v.1.15,2013-07-08 23:00:00,
2013-07-08 18:10:00,85.2,73.9,29.95,SW,216,6.0,6.0,69,0.00,,,0.00,Wunderground v.1.15,2013-07-08 23:10:00,
2013-07-08 18:15:00,85.1,73.8,29.95,SSW,193,5.0,6.0,69,0.00,,,0.00,Wunderground v.1.15,2013-07-08 23:15:00,
2013-07-08 18:20:00,85.1,74.2,29.95,SW,235,5.0,8.0,70,0.00,,,0.00,Wunderground v.1.15,2013-07-08 23:20:00,
2013-07-08 18:25:00,85.0,73.7,29.95,SW,229,6.0,8.0,69,0.00,,,0.00,Wunderground v.1.15,2013-07-08 23:25:00,
2013-07-08 18:35:00,84.8,73.9,29.95,SSW,210,6.0,6.0,70,0.00,,,0.00,Wunderground v.1.15,2013-07-08 23:35:00,
2013-07-08 18:45:00,84.5,74.1,29.95,SW,214,6.0,7.0,71,0.00,,,0.00,Wunderground v.1.15,2013-07-08 23:45:00,
2013-07-08 18:50:00,84.3,74.3,29.96,SSW,193,5.0,5.0,72,0.00,,,0.00,Wunderground v.1.15,2013-07-08 23:50:00,
2013-07-08 18:55:00,84.2,74.2,29.96,SSW,213,6.0,6.0,72,0.00,,,0.00,Wunderground v.1.15,2013-07-08 23:55:00,
2013-07-08 19:00:00,84.0,74.4,29.96,SSW,204,6.0,6.0,73,0.00,,,0.00,Wunderground v.1.15,2013-07-09 00:00:00,
2013-07-08 19:10:00,83.7,74.9,29.96,SW,219,5.0,6.0,75,0.00,,,0.00,Wunderground v.1.15,2013-07-09 00:10:00,
2013-07-08 19:20:00,83.4,75.4,29.96,SW,225,5.0,6.0,77,0.00,,,0.00,Wunderground v.1.15,2013-07-09 00:20:00,
2013-07-08 19:25:00,83.2,75.2,29.96,SW,219,5.0,6.0,77,0.00,,,0.00,Wunderground v.1.15,2013-07-09 00:25:00,
2013-07-08 19:30:00,83.2,75.6,29.96,SW,225,4.0,4.0,78,0.00,,,0.00,Wunderground v.1.15,2013-07-09 00:30:00,
2013-07-08 19:35:00,83.1,75.9,29.97,SSW,202,4.0,6.0,79,0.00,,,0.00,Wunderground v.1.15,2013-07-09 00:35:00,
2013-07-08 19:45:00,83.0,76.2,29.97,South,175,4.0,5.0,80,0.00,,,0.00,Wunderground v.1.15,2013-07-09 00:45:00,
2013-07-08 19:50:00,82.9,76.5,29.97,SW,221,3.0,3.0,81,0.00,,,0.00,Wunderground v.1.15,2013-07-09 00:50:00,
2013-07-08 20:00:00,82.3,76.3,29.97,SSW,211,2.0,3.0,82,0.00,,,0.00,Wunderground v.1.15,2013-07-09 01:00:00,
2013-07-08 20:10:00,81.7,76.4,29.97,SW,221,2.0,2.0,84,0.00,,,0.00,Wunderground v.1.15,2013-07-09 01:10:00,
2013-07-08 20:15:00,81.3,76.4,29.97,SSW,196,2.0,2.0,85,0.00,,,0.00,Wunderground v.1.15,2013-07-09 01:15:00,
2013-07-08 20:25:00,80.7,76.5,29.97,SSW,213,1.0,1.0,87,0.00,,,0.00,Wunderground v.1.15,2013-07-09 01:25:00,
2013-07-08 20:30:00,80.6,76.4,29.98,SSW,213,1.0,1.0,87,0.00,,,0.00,Wunderground v.1.15,2013-07-09 01:30:00,
2013-07-08 20:35:00,80.4,76.2,29.98,SW,217,1.0,1.0,87,0.00,,,0.00,Wunderground v.1.15,2013-07-09 01:35:00,
2013-07-08 20:40:00,80.1,76.2,29.98,South,179,1.0,4.0,88,0.00,,,0.00,Wunderground v.1.15,2013-07-09 01:40:00,
2013-07-08 20:50:00,80.0,76.5,29.98,South,186,3.0,3.0,89,0.00,,,0.00,Wunderground v.1.15,2013-07-09 01:50:00,
2013-07-08 20:55:00,79.8,76.3,29.98,South,169,3.0,4.0,89,0.00,,,0.00,Wunderground v.1.15,2013-07-09 01:55:00,
2013-07-08 21:00:00,79.8,76.3,29.98,SSW,194,3.0,3.0,89,0.00,,,0.00,Wunderground v.1.15,2013-07-09 02:00:00,
2013-07-08 21:05:00,79.6,76.1,29.98,South,184,3.0,5.0,89,0.00,,,0.00,Wunderground v.1.15,2013-07-09 02:05:00,
2013-07-08 21:10:00,79.5,76.0,29.98,SSW,195,4.0,4.0,89,0.00,,,0.00,Wunderground v.1.15,2013-07-09 02:10:00,
2013-07-08 21:15:00,79.3,76.1,29.98,South,187,3.0,4.0,90,0.00,,,0.00,Wunderground v.1.15,2013-07-09 02:15:00,
2013-07-08 21:20:00,79.3,76.1,29.98,SSW,192,3.0,4.0,90,0.00,,,0.00,Wunderground v.1.15,2013-07-09 02:20:00,
2013-07-08 21:25:00,79.3,76.1,29.97,South,188,4.0,4.0,90,0.00,,,0.00,Wunderground v.1.15,2013-07-09 02:25:00,
2013-07-08 21:30:00,79.2,76.0,29.98,South,190,4.0,4.0,90,0.00,,,0.00,Wunderground v.1.15,2013-07-09 02:30:00,
2013-07-08 21:35:00,79.2,76.0,29.98,South,169,4.0,5.0,90,0.00,,,0.00,Wunderground v.1.15,2013-07-09 02:35:00,
2013-07-08 21:40:00,79.2,76.0,29.98,South,181,4.0,4.0,90,0.00,,,0.00,Wunderground v.1.15,2013-07-09 02:40:00,
2013-07-08 21:45:00,78.9,75.7,29.97,South,184,4.0,4.0,90,0.00,,,0.00,Wunderground v.1.15,2013-07-09 02:45:00,
2013-07-08 21:50:00,78.6,75.8,29.98,SSW,201,4.0,4.0,91,0.00,,,0.00,Wunderground v.1.15,2013-07-09 02:50:00,
2013-07-08 21:55:00,78.4,75.6,29.98,South,179,4.0,4.0,91,0.00,,,0.00,Wunderground v.1.15,2013-07-09 02:55:00,
2013-07-08 22:00:00,78.3,75.8,29.97,SSW,209,4.0,4.0,92,0.00,,,0.00,Wunderground v.1.15,2013-07-09 03:00:00,
2013-07-08 22:10:00,78.1,75.6,29.98,South,186,4.0,4.0,92,0.00,,,0.00,Wunderground v.1.15,2013-07-09 03:10:00,
2013-07-08 22:15:00,78.1,75.9,29.98,SSW,196,3.0,4.0,93,0.00,,,0.00,Wunderground v.1.15,2013-07-09 03:15:00,
2013-07-08 22:20:00,78.1,75.9,29.98,SSW,202,3.0,3.0,93,0.00,,,0.00,Wunderground v.1.15,2013-07-09 03:20:00,
2013-07-08 22:25:00,78.1,75.9,29.98,South,180,3.0,3.0,93,0.00,,,0.00,Wunderground v.1.15,2013-07-09 03:25:00,
2013-07-08 22:30:00,78.1,75.9,29.98,South,188,3.0,4.0,93,0.00,,,0.00,Wunderground v.1.15,2013-07-09 03:30:00,
2013-07-08 22:35:00,78.2,76.0,29.98,SSW,193,3.0,4.0,93,0.00,,,0.00,Wunderground v.1.15,2013-07-09 03:35:00,
2013-07-08 22:40:00,78.2,76.3,29.99,South,185,3.0,5.0,94,0.00,,,0.00,Wunderground v.1.15,2013-07-09 03:40:00,